createdAt,value
2017-07-26T00:00:36.939Z,99.99
2017-07-26T00:01:38.186Z,99.99
2017-07-26T00:02:39.459Z,99.99
2017-07-26T00:03:40.708Z,99.99
2017-07-26T00:04:41.961Z,99.99
2017-07-26T00:05:43.292Z,99.99
2017-07-26T00:06:44.527Z,99.99
2017-07-26T00:07:45.899Z,99.99
2017-07-26T00:08:47.039Z,99.99
2017-07-26T00:09:48.289Z,99.99
2017-07-26T00:10:49.507Z,99.99
2017-07-26T00:11:50.818Z,99.99
2017-07-26T00:12:52.045Z,99.99
2017-07-26T00:13:53.312Z,99.99
2017-07-26T00:14:54.590Z,99.99
2017-07-26T00:15:55.843Z,99.99
2017-07-26T00:16:57.077Z,99.99
2017-07-26T00:17:58.347Z,99.99
2017-07-26T00:18:59.603Z,99.99
2017-07-26T00:20:00.900Z,99.99
2017-07-26T00:21:02.165Z,99.99
2017-07-26T00:22:03.416Z,99.99
2017-07-26T00:23:04.643Z,99.99
2017-07-26T00:24:05.888Z,99.99
2017-07-26T00:25:07.243Z,99.99
2017-07-26T00:26:08.503Z,99.99
2017-07-26T00:27:09.817Z,99.99
2017-07-26T00:28:10.981Z,99.99
2017-07-26T00:29:12.229Z,99.99
2017-07-26T00:30:13.462Z,99.99
2017-07-26T00:31:14.707Z,99.99
2017-07-26T00:32:15.949Z,99.99
2017-07-26T00:33:17.286Z,99.99
2017-07-26T00:34:18.530Z,99.99
2017-07-26T00:35:19.754Z,99.99
2017-07-26T00:36:21.006Z,99.99
2017-07-26T00:37:22.254Z,99.99
2017-07-26T00:38:23.579Z,99.99
2017-07-26T00:39:24.828Z,99.99
2017-07-26T00:40:26.149Z,99.99
2017-07-26T00:41:27.321Z,99.99
2017-07-26T00:42:28.557Z,99.99
2017-07-26T00:43:29.802Z,99.99
2017-07-26T00:44:31.111Z,99.99
2017-07-26T00:45:32.407Z,99.99
2017-07-26T00:46:33.664Z,99.99
2017-07-26T00:47:34.886Z,99.99
2017-07-26T00:48:36.123Z,99.99
2017-07-26T00:49:37.371Z,99.99
2017-07-26T00:50:38.695Z,99.99
2017-07-26T00:51:39.926Z,99.99
2017-07-26T00:52:41.171Z,99.99
2017-07-26T00:53:42.415Z,99.99
2017-07-26T00:54:43.650Z,99.99
2017-07-26T00:55:44.916Z,99.99
2017-07-26T00:56:46.128Z,99.99
2017-07-26T00:57:47.365Z,99.99
2017-07-26T00:58:48.706Z,99.99
2017-07-26T00:59:49.946Z,99.99
2017-07-26T01:00:51.200Z,99.99
2017-07-26T01:01:52.451Z,99.99
2017-07-26T01:02:53.694Z,99.99
2017-07-26T01:03:55.013Z,99.99
2017-07-26T01:04:56.405Z,99.99
2017-07-26T01:05:58.460Z,99.99
2017-07-26T01:07:00.484Z,99.99
2017-07-26T01:08:01.729Z,99.99
2017-07-26T01:09:02.994Z,99.99
2017-07-26T01:10:04.237Z,99.99
2017-07-26T01:11:05.462Z,99.99
2017-07-26T01:12:06.735Z,99.99
2017-07-26T01:13:08.061Z,99.99
2017-07-26T01:14:09.244Z,99.99
2017-07-26T01:15:10.479Z,99.99
2017-07-26T01:16:11.720Z,99.99
2017-07-26T01:17:13.040Z,99.99
2017-07-26T01:18:14.383Z,99.99
2017-07-26T01:19:15.620Z,99.99
2017-07-26T01:20:16.857Z,99.99
2017-07-26T01:21:18.096Z,99.99
2017-07-26T01:22:19.334Z,99.99
2017-07-26T01:23:20.598Z,99.99
2017-07-26T01:24:21.833Z,99.99
2017-07-26T01:25:23.192Z,99.99
2017-07-26T01:26:24.463Z,99.99
2017-07-26T01:27:25.692Z,99.99
2017-07-26T01:28:26.930Z,99.99
2017-07-26T01:29:28.168Z,99.99
2017-07-26T01:30:29.417Z,99.99
2017-07-26T01:31:30.895Z,99.99
2017-07-26T01:32:32.131Z,99.99
2017-07-26T01:33:33.364Z,99.99
2017-07-26T01:34:34.604Z,99.99
2017-07-26T01:35:35.843Z,99.99
2017-07-26T01:36:37.144Z,99.99
2017-07-26T01:37:38.386Z,99.99
2017-07-26T01:38:39.616Z,99.99
2017-07-26T01:39:41.543Z,99.99
2017-07-26T01:40:43.621Z,99.99
2017-07-26T01:41:44.852Z,99.99
2017-07-26T01:42:46.078Z,99.99
2017-07-26T01:43:47.418Z,99.99
2017-07-26T01:44:48.707Z,99.99
2017-07-26T01:45:49.955Z,99.99
2017-07-26T01:46:51.187Z,99.99
2017-07-26T01:47:52.464Z,99.99
2017-07-26T01:48:53.707Z,99.99
2017-07-26T01:49:54.956Z,99.99
2017-07-26T01:50:56.242Z,99.99
2017-07-26T01:51:57.444Z,99.99
2017-07-26T01:52:58.799Z,99.99
2017-07-26T01:54:00.105Z,99.99
2017-07-26T01:55:01.324Z,99.99
2017-07-26T01:56:02.566Z,99.99
2017-07-26T01:57:03.808Z,99.99
2017-07-26T01:58:05.163Z,99.99
2017-07-26T01:59:06.405Z,99.99
2017-07-26T02:00:07.646Z,99.99
2017-07-26T02:01:08.922Z,99.99
2017-07-26T02:02:10.165Z,99.99
2017-07-26T02:03:11.400Z,99.99
2017-07-26T02:04:12.666Z,99.99
2017-07-26T02:05:13.905Z,99.99
2017-07-26T02:06:15.129Z,99.99
2017-07-26T02:07:16.368Z,99.99
2017-07-26T02:08:17.633Z,99.99
2017-07-26T02:09:18.846Z,99.99
2017-07-26T02:10:20.087Z,99.99
2017-07-26T02:11:21.352Z,99.99
2017-07-26T02:12:22.589Z,99.99
2017-07-26T02:13:23.828Z,99.99
2017-07-26T02:14:25.091Z,99.99
2017-07-26T02:15:26.339Z,99.99
2017-07-26T02:16:27.579Z,99.99
2017-07-26T02:17:28.834Z,99.99
2017-07-26T02:18:30.080Z,99.99
2017-07-26T02:19:31.321Z,99.99
2017-07-26T02:20:32.552Z,99.99
2017-07-26T02:21:33.785Z,99.99
2017-07-26T02:22:35.040Z,99.99
2017-07-26T02:23:36.419Z,99.99
2017-07-26T02:24:37.633Z,99.99
2017-07-26T02:25:38.932Z,99.99
2017-07-26T02:26:40.176Z,99.99
2017-07-26T02:27:41.419Z,99.99
2017-07-26T02:28:42.680Z,99.99
2017-07-26T02:29:43.919Z,99.99
2017-07-26T02:30:45.149Z,99.99
2017-07-26T02:31:46.441Z,99.99
2017-07-26T02:32:47.665Z,99.99
2017-07-26T02:33:48.938Z,99.99
2017-07-26T02:34:50.176Z,99.99
2017-07-26T02:35:51.465Z,99.99
2017-07-26T02:36:52.754Z,99.99
2017-07-26T02:37:54.035Z,99.99
2017-07-26T02:38:55.262Z,99.99
2017-07-26T02:39:56.505Z,99.99
2017-07-26T02:40:57.740Z,99.99
2017-07-26T02:41:58.983Z,99.99
2017-07-26T02:43:00.313Z,99.99
2017-07-26T02:44:01.549Z,99.99
2017-07-26T02:45:02.787Z,99.99
2017-07-26T02:46:04.028Z,99.99
2017-07-26T02:47:05.254Z,99.99
2017-07-26T02:48:06.695Z,99.99
2017-07-26T02:49:07.917Z,99.99
2017-07-26T02:50:09.211Z,99.99
2017-07-26T02:51:10.432Z,99.99
2017-07-26T02:52:11.673Z,99.99
2017-07-26T02:53:12.922Z,99.99
2017-07-26T02:54:14.169Z,99.99
2017-07-26T02:55:15.490Z,99.99
2017-07-26T02:56:16.756Z,99.99
2017-07-26T02:57:18.081Z,99.99
2017-07-26T02:58:19.317Z,99.99
2017-07-26T02:59:20.558Z,99.99
2017-07-26T03:00:21.787Z,99.99
2017-07-26T03:01:23.038Z,99.99
2017-07-26T03:02:24.313Z,99.99
2017-07-26T03:03:25.543Z,99.99
2017-07-26T03:04:26.774Z,99.99
2017-07-26T03:05:28.018Z,99.99
2017-07-26T03:06:29.340Z,99.99
2017-07-26T03:07:30.579Z,99.99
2017-07-26T03:08:31.812Z,99.99
2017-07-26T03:09:33.106Z,99.99
2017-07-26T03:10:34.356Z,99.99
2017-07-26T03:11:35.595Z,99.99
2017-07-26T03:12:36.918Z,99.99
2017-07-26T03:13:38.150Z,99.99
2017-07-26T03:14:39.388Z,99.99
2017-07-26T03:15:40.625Z,99.99
2017-07-26T03:16:41.864Z,99.99
2017-07-26T03:17:43.103Z,99.99
2017-07-26T03:18:44.340Z,99.99
2017-07-26T03:19:45.573Z,99.99
2017-07-26T03:20:46.822Z,99.99
2017-07-26T03:21:48.111Z,99.99
2017-07-26T03:22:49.349Z,99.99
2017-07-26T03:23:50.587Z,99.99
2017-07-26T03:24:51.820Z,99.99
2017-07-26T03:25:53.099Z,99.99
2017-07-26T03:26:54.403Z,99.99
2017-07-26T03:27:55.601Z,99.99
2017-07-26T03:28:56.835Z,99.99
2017-07-26T03:29:58.268Z,99.99
2017-07-26T03:30:59.510Z,99.99
2017-07-26T03:32:00.761Z,99.99
2017-07-26T03:33:01.998Z,99.99
2017-07-26T03:34:03.252Z,99.99
2017-07-26T03:35:04.535Z,99.99
2017-07-26T03:36:05.770Z,99.99
2017-07-26T03:37:07.039Z,99.99
2017-07-26T03:38:08.284Z,99.99
2017-07-26T03:39:09.595Z,99.99
2017-07-26T03:40:10.889Z,99.99
2017-07-26T03:41:12.134Z,99.99
2017-07-26T03:42:13.372Z,99.99
2017-07-26T03:43:14.597Z,99.99
2017-07-26T03:44:15.839Z,99.99
2017-07-26T03:45:17.163Z,99.99
2017-07-26T03:46:18.407Z,99.99
2017-07-26T03:47:19.647Z,99.99
2017-07-26T03:48:20.944Z,99.99
2017-07-26T03:49:22.182Z,99.99
2017-07-26T03:50:23.435Z,99.99
2017-07-26T03:51:24.747Z,99.99
2017-07-26T03:52:25.986Z,99.99
2017-07-26T03:53:27.231Z,99.99
2017-07-26T03:54:28.472Z,99.99
2017-07-26T03:55:29.712Z,99.99
2017-07-26T03:56:31.080Z,99.99
2017-07-26T03:57:32.321Z,99.99
2017-07-26T03:58:33.571Z,99.99
2017-07-26T03:59:34.805Z,99.99
2017-07-26T04:00:36.046Z,99.99
2017-07-26T04:01:37.278Z,99.99
2017-07-26T04:02:38.520Z,99.99
2017-07-26T04:03:39.751Z,99.99
2017-07-26T04:04:41.012Z,99.99
2017-07-26T04:05:42.304Z,99.99
2017-07-26T04:06:43.492Z,99.99
2017-07-26T04:07:44.738Z,99.99
2017-07-26T04:08:45.997Z,99.99
2017-07-26T04:09:47.219Z,99.99
2017-07-26T04:10:48.457Z,99.99
2017-07-26T04:11:49.757Z,99.99
2017-07-26T04:12:51.074Z,99.99
2017-07-26T04:13:52.324Z,99.99
2017-07-26T04:14:53.565Z,99.99
2017-07-26T04:15:54.802Z,99.99
2017-07-26T04:16:56.049Z,99.99
2017-07-26T04:17:57.276Z,99.99
2017-07-26T04:18:58.511Z,99.99
2017-07-26T04:19:59.766Z,99.99
2017-07-26T04:21:00.997Z,99.99
2017-07-26T04:22:02.238Z,99.99
2017-07-26T04:23:03.477Z,99.99
2017-07-26T04:24:04.808Z,99.99
2017-07-26T04:25:06.015Z,99.99
2017-07-26T04:26:07.258Z,99.99
2017-07-26T04:27:08.497Z,99.99
2017-07-26T04:28:09.738Z,99.99
2017-07-26T04:29:10.985Z,99.99
2017-07-26T04:30:12.220Z,99.99
2017-07-26T04:31:13.557Z,99.99
2017-07-26T04:32:14.790Z,99.99
2017-07-26T04:33:16.063Z,99.99
2017-07-26T04:34:17.303Z,99.99
2017-07-26T04:35:18.536Z,99.99
2017-07-26T04:36:19.778Z,99.99
2017-07-26T04:37:21.017Z,99.99
2017-07-26T04:38:22.300Z,99.99
2017-07-26T04:39:23.538Z,99.99
2017-07-26T04:40:24.776Z,99.99
2017-07-26T04:41:26.013Z,99.99
2017-07-26T04:42:27.250Z,99.99
2017-07-26T04:43:28.504Z,99.99
2017-07-26T04:44:29.745Z,99.99
2017-07-26T04:45:30.970Z,99.99
2017-07-26T04:46:32.217Z,99.99
2017-07-26T04:47:33.472Z,99.99
2017-07-26T04:48:34.697Z,99.99
2017-07-26T04:49:35.930Z,99.99
2017-07-26T04:50:37.175Z,99.99
2017-07-26T04:51:38.441Z,99.99
2017-07-26T04:52:39.669Z,99.99
2017-07-26T04:53:40.913Z,99.99
2017-07-26T04:54:42.143Z,99.99
2017-07-26T04:55:43.389Z,99.99
2017-07-26T04:56:44.611Z,99.99
2017-07-26T04:57:45.862Z,99.99
2017-07-26T04:58:47.103Z,99.99
2017-07-26T04:59:48.346Z,99.99
2017-07-26T05:00:49.593Z,99.99
2017-07-26T05:01:50.819Z,99.99
2017-07-26T05:02:52.253Z,99.99
2017-07-26T05:03:53.503Z,99.99
2017-07-26T05:04:54.847Z,99.99
2017-07-26T05:05:56.080Z,99.99
2017-07-26T05:06:57.319Z,99.99
2017-07-26T05:07:58.559Z,99.99
2017-07-26T05:08:59.798Z,99.99
2017-07-26T05:10:01.073Z,99.99
2017-07-26T05:11:02.324Z,99.99
2017-07-26T05:12:03.561Z,99.99
2017-07-26T05:13:04.827Z,99.99
2017-07-26T05:14:06.066Z,99.99
2017-07-26T05:15:07.306Z,99.99
2017-07-26T05:16:08.541Z,99.99
2017-07-26T05:17:09.793Z,99.99
2017-07-26T05:18:11.253Z,99.99
2017-07-26T05:19:12.493Z,99.99
2017-07-26T05:20:13.722Z,99.99
2017-07-26T05:21:14.978Z,99.99
2017-07-26T05:22:16.217Z,99.99
2017-07-26T05:23:17.700Z,99.99
2017-07-26T05:24:18.947Z,99.99
2017-07-26T05:25:20.188Z,99.99
2017-07-26T05:26:21.429Z,99.99
2017-07-26T05:27:22.694Z,99.99
2017-07-26T05:28:23.932Z,99.99
2017-07-26T05:29:25.174Z,99.99
2017-07-26T05:30:26.405Z,99.99
2017-07-26T05:31:27.650Z,99.99
2017-07-26T05:32:28.871Z,99.99
2017-07-26T05:33:30.110Z,99.99
2017-07-26T05:34:31.399Z,99.99
2017-07-26T05:35:32.838Z,99.99
2017-07-26T05:36:34.130Z,99.99
2017-07-26T05:37:35.365Z,99.99
2017-07-26T05:38:36.603Z,99.99
2017-07-26T05:39:37.844Z,99.99
2017-07-26T05:40:39.096Z,99.99
2017-07-26T05:41:40.400Z,99.99
2017-07-26T05:42:41.621Z,99.99
2017-07-26T05:43:42.963Z,99.99
2017-07-26T05:44:44.214Z,99.99
2017-07-26T05:45:45.467Z,99.99
2017-07-26T05:46:46.854Z,99.99
2017-07-26T05:47:48.098Z,99.99
2017-07-26T05:48:49.370Z,99.99
2017-07-26T05:49:50.607Z,99.99
2017-07-26T05:50:51.851Z,99.99
2017-07-26T05:51:53.137Z,99.99
2017-07-26T05:52:54.377Z,99.99
2017-07-26T05:53:55.622Z,99.99
2017-07-26T05:54:56.873Z,99.99
2017-07-26T05:55:58.111Z,99.99
2017-07-26T05:56:59.350Z,99.99
2017-07-26T05:58:00.592Z,99.99
2017-07-26T05:59:01.833Z,99.99
2017-07-26T06:00:03.056Z,99.99
2017-07-26T06:01:04.308Z,99.99
2017-07-26T06:02:05.550Z,99.99
2017-07-26T06:03:06.803Z,99.99
2017-07-26T06:04:08.033Z,99.99
2017-07-26T06:05:09.322Z,99.99
2017-07-26T06:06:10.569Z,99.99
2017-07-26T06:07:11.813Z,99.99
2017-07-26T06:08:13.158Z,99.99
2017-07-26T06:09:14.406Z,99.99
2017-07-26T06:10:15.643Z,99.99
2017-07-26T06:11:16.888Z,99.99
2017-07-26T06:12:18.139Z,99.99
2017-07-26T06:13:19.401Z,99.99
2017-07-26T06:14:20.697Z,97.19
2017-07-26T06:15:21.945Z,92.7
2017-07-26T06:16:23.206Z,96.89
2017-07-26T06:17:24.422Z,95.25
2017-07-26T06:18:25.723Z,92.21
2017-07-26T06:19:27.076Z,82.58
2017-07-26T06:20:28.333Z,84.46
2017-07-26T06:21:29.570Z,78.44
2017-07-26T06:22:30.819Z,79.3
2017-07-26T06:23:32.050Z,74.26
2017-07-26T06:24:33.429Z,70.03
2017-07-26T06:25:34.759Z,71.38
2017-07-26T06:26:36.111Z,70.15
2017-07-26T06:27:37.353Z,67.37
2017-07-26T06:28:38.583Z,66.4
2017-07-26T06:29:39.826Z,64.56
2017-07-26T06:30:41.114Z,63.59
2017-07-26T06:31:42.379Z,62.39
2017-07-26T06:32:43.613Z,64.5
2017-07-26T06:33:44.864Z,64.37
2017-07-26T06:34:46.114Z,64.53
2017-07-26T06:35:47.440Z,64.62
2017-07-26T06:36:48.823Z,65.17
2017-07-26T06:37:50.067Z,65.92
2017-07-26T06:38:51.358Z,67.05
2017-07-26T06:39:52.615Z,67.69
2017-07-26T06:40:53.862Z,68.75
2017-07-26T06:41:55.150Z,68.73
2017-07-26T06:42:56.392Z,66.34
2017-07-26T06:43:57.652Z,64.27
2017-07-26T06:44:58.953Z,61.42
2017-07-26T06:46:00.200Z,60
2017-07-26T06:47:01.452Z,58.08
2017-07-26T06:48:02.695Z,56.85
2017-07-26T06:49:03.940Z,55.74
2017-07-26T06:50:05.193Z,53.26
2017-07-26T06:51:06.456Z,50.68
2017-07-26T06:52:07.705Z,49.63
2017-07-26T06:53:08.942Z,48.41
2017-07-26T06:54:10.213Z,46.75
2017-07-26T06:55:11.482Z,46.29
2017-07-26T06:56:12.761Z,46.85
2017-07-26T06:57:14.004Z,47.07
2017-07-26T06:58:15.272Z,46.29
2017-07-26T06:59:16.518Z,45.33
2017-07-26T07:00:17.781Z,44.45
2017-07-26T07:01:19.078Z,44.82
2017-07-26T07:02:20.331Z,45.41
2017-07-26T07:03:21.575Z,45.75
2017-07-26T07:04:22.828Z,46.36
2017-07-26T07:05:24.081Z,45.8
2017-07-26T07:06:25.404Z,44.18
2017-07-26T07:07:26.661Z,43.01
2017-07-26T07:08:27.904Z,42.74
2017-07-26T07:09:29.150Z,41.29
2017-07-26T07:10:30.408Z,40.23
2017-07-26T07:11:31.672Z,40.06
2017-07-26T07:12:32.928Z,38.51
2017-07-26T07:13:34.165Z,37.94
2017-07-26T07:14:35.449Z,36.98
2017-07-26T07:15:36.744Z,35.64
2017-07-26T07:16:38.025Z,34.77
2017-07-26T07:17:39.266Z,35.18
2017-07-26T07:18:40.515Z,34.7
2017-07-26T07:19:41.759Z,33.64
2017-07-26T07:20:43.010Z,32.87
2017-07-26T07:21:44.247Z,32.93
2017-07-26T07:22:45.503Z,33.39
2017-07-26T07:23:46.754Z,34.93
2017-07-26T07:24:48.006Z,36.11
2017-07-26T07:25:49.378Z,35.99
2017-07-26T07:26:50.734Z,36.86
2017-07-26T07:27:51.902Z,36.82
2017-07-26T07:28:53.178Z,37.23
2017-07-26T07:29:54.502Z,37.41
2017-07-26T07:30:55.753Z,37.23
2017-07-26T07:31:57.014Z,36.96
2017-07-26T07:32:58.257Z,35.62
2017-07-26T07:33:59.534Z,34.28
2017-07-26T07:35:00.906Z,34.49
2017-07-26T07:36:02.168Z,32.74
2017-07-26T07:37:03.436Z,32.15
2017-07-26T07:38:04.702Z,33.98
2017-07-26T07:39:05.933Z,33.8
2017-07-26T07:40:07.204Z,32.72
2017-07-26T07:41:08.470Z,33.2
2017-07-26T07:42:09.720Z,33.49
2017-07-26T07:43:10.969Z,34.28
2017-07-26T07:44:12.232Z,33.49
2017-07-26T07:45:13.719Z,33.38
2017-07-26T07:46:15.088Z,32.79
2017-07-26T07:47:16.336Z,33.58
2017-07-26T07:48:17.580Z,32.51
2017-07-26T07:49:18.829Z,32.05
2017-07-26T07:50:20.085Z,32.34
2017-07-26T07:51:21.353Z,30.4
2017-07-26T07:52:22.612Z,29.33
2017-07-26T07:53:23.875Z,29.23
2017-07-26T07:54:25.130Z,29.05
2017-07-26T07:55:26.386Z,28.47
2017-07-26T07:56:27.638Z,28.26
2017-07-26T07:57:28.949Z,28.56
2017-07-26T07:58:30.211Z,27.99
2017-07-26T07:59:31.463Z,28.2
2017-07-26T08:00:32.720Z,27.33
2017-07-26T08:01:33.963Z,25.27
2017-07-26T08:02:35.284Z,24.98
2017-07-26T08:03:36.531Z,25.29
2017-07-26T08:04:37.841Z,24.2
2017-07-26T08:05:39.091Z,24.21
2017-07-26T08:06:40.358Z,24.22
2017-07-26T08:07:41.606Z,24.13
2017-07-26T08:08:42.936Z,24.24
2017-07-26T08:09:44.196Z,24.32
2017-07-26T08:10:45.466Z,23.05
2017-07-26T08:11:46.814Z,23.14
2017-07-26T08:12:48.066Z,23.7
2017-07-26T08:13:49.365Z,25.04
2017-07-26T08:14:50.613Z,26.78
2017-07-26T08:15:52.132Z,27.85
2017-07-26T08:16:53.370Z,28.33
2017-07-26T08:17:54.620Z,29.09
2017-07-26T08:18:55.867Z,30.43
2017-07-26T08:19:57.220Z,31.12
2017-07-26T08:20:58.465Z,31.51
2017-07-26T08:21:59.736Z,30.84
2017-07-26T08:23:00.994Z,30.46
2017-07-26T08:24:02.245Z,30.55
2017-07-26T08:25:03.506Z,30.45
2017-07-26T08:26:04.754Z,30.55
2017-07-26T08:27:06.017Z,30.27
2017-07-26T08:28:07.321Z,30.25
2017-07-26T08:29:08.617Z,30.63
2017-07-26T08:30:09.882Z,31.68
2017-07-26T08:31:11.125Z,32.73
2017-07-26T08:32:12.396Z,34.26
2017-07-26T08:33:13.657Z,34.62
2017-07-26T08:34:14.946Z,35.36
2017-07-26T08:35:16.362Z,36.91
2017-07-26T08:36:17.564Z,37.77
2017-07-26T08:37:19.023Z,38.24
2017-07-26T08:38:20.268Z,38.92
2017-07-26T08:39:21.519Z,40.06
2017-07-26T08:40:22.770Z,40.93
2017-07-26T08:41:24.148Z,41.01
2017-07-26T08:42:25.353Z,41.69
2017-07-26T08:43:26.601Z,41.96
2017-07-26T08:44:27.848Z,42.74
2017-07-26T08:45:29.099Z,42.38
2017-07-26T08:46:30.385Z,41.13
2017-07-26T08:47:31.592Z,40.76
2017-07-26T08:48:32.835Z,40.21
2017-07-26T08:49:34.093Z,38.2
2017-07-26T08:50:35.340Z,37.26
2017-07-26T08:51:36.603Z,34.38
2017-07-26T08:52:37.843Z,33.14
2017-07-26T08:53:39.099Z,31.12
2017-07-26T08:54:40.467Z,30.36
2017-07-26T08:55:41.717Z,29.43
2017-07-26T08:56:43.047Z,27.69
2017-07-26T08:57:44.281Z,26.26
2017-07-26T08:58:45.643Z,25.12
2017-07-26T08:59:46.894Z,23.65
2017-07-26T09:00:48.198Z,22.49
2017-07-26T09:01:49.440Z,22.29
2017-07-26T09:02:50.693Z,22.37
2017-07-26T09:03:52.048Z,23.22
2017-07-26T09:04:53.314Z,24.85
2017-07-26T09:05:54.631Z,26.77
2017-07-26T09:06:55.878Z,28.59
2017-07-26T09:07:57.194Z,30.33
2017-07-26T09:08:58.455Z,31.51
2017-07-26T09:09:59.812Z,31.32
2017-07-26T09:11:01.094Z,30.46
2017-07-26T09:12:02.354Z,28.64
2017-07-26T09:13:03.601Z,27.76
2017-07-26T09:14:04.848Z,26.21
2017-07-26T09:15:06.113Z,26.14
2017-07-26T09:16:07.447Z,24.29
2017-07-26T09:17:08.779Z,23.51
2017-07-26T09:18:10.046Z,23.93
2017-07-26T09:19:11.275Z,21.07
2017-07-26T09:20:12.527Z,20.38
2017-07-26T09:21:13.783Z,20.28
2017-07-26T09:22:15.073Z,20.87
2017-07-26T09:23:16.325Z,20.89
2017-07-26T09:24:17.586Z,20.9
2017-07-26T09:25:18.833Z,19.93
2017-07-26T09:26:20.097Z,19.85
2017-07-26T09:27:21.347Z,19.27
2017-07-26T09:28:22.607Z,18.66
2017-07-26T09:29:23.865Z,19.65
2017-07-26T09:30:25.139Z,19.71
2017-07-26T09:31:26.417Z,20.5
2017-07-26T09:32:27.644Z,21.16
2017-07-26T09:33:28.911Z,23.1
2017-07-26T09:34:30.164Z,24.06
2017-07-26T09:35:31.451Z,24.93
2017-07-26T09:36:32.741Z,25.05
2017-07-26T09:37:33.965Z,22.93
2017-07-26T09:38:35.290Z,21.67
2017-07-26T09:39:36.547Z,20.9
2017-07-26T09:40:37.842Z,20.61
2017-07-26T09:41:39.147Z,19.73
2017-07-26T09:42:40.404Z,20.42
2017-07-26T09:43:41.645Z,19.84
2017-07-26T09:44:42.906Z,20.13
2017-07-26T09:45:44.171Z,19.93
2017-07-26T09:46:45.477Z,19.74
2017-07-26T09:47:46.760Z,18.75
2017-07-26T09:48:48.030Z,18.26
2017-07-26T09:49:49.268Z,19.57
2017-07-26T09:50:50.518Z,17.69
2017-07-26T09:51:51.810Z,16.89
2017-07-26T09:52:53.257Z,17.4
2017-07-26T09:53:54.543Z,16.22
2017-07-26T09:54:55.773Z,14.83
2017-07-26T09:55:57.043Z,14.83
2017-07-26T09:56:58.305Z,15.64
2017-07-26T09:57:59.632Z,14.84
2017-07-26T09:59:00.928Z,14.74
2017-07-26T10:00:02.283Z,15.34
2017-07-26T10:01:03.520Z,14.76
2017-07-26T10:02:04.786Z,14.26
2017-07-26T10:03:06.037Z,14.78
2017-07-26T10:04:07.334Z,14.28
2017-07-26T10:05:08.658Z,13.99
2017-07-26T10:06:09.898Z,13.89
2017-07-26T10:07:11.164Z,14.05
2017-07-26T10:08:12.404Z,14.92
2017-07-26T10:09:13.681Z,16.37
2017-07-26T10:10:15.070Z,17.91
2017-07-26T10:11:16.454Z,19.17
2017-07-26T10:12:17.678Z,19.73
2017-07-26T10:13:18.931Z,22.27
2017-07-26T10:14:20.179Z,22.67
2017-07-26T10:15:21.409Z,21.32
2017-07-26T10:16:22.825Z,20.44
2017-07-26T10:17:24.082Z,19.56
2017-07-26T10:18:25.344Z,19.96
2017-07-26T10:19:26.635Z,19.68
2017-07-26T10:20:27.854Z,19.2
2017-07-26T10:21:29.124Z,19.71
2017-07-26T10:22:30.360Z,19.21
2017-07-26T10:23:31.622Z,19.79
2017-07-26T10:24:32.867Z,19.87
2017-07-26T10:25:34.142Z,19.77
2017-07-26T10:26:35.427Z,20.65
2017-07-26T10:27:36.669Z,20.73
2017-07-26T10:28:37.922Z,21.22
2017-07-26T10:29:39.184Z,21.61
2017-07-26T10:30:40.435Z,22.12
2017-07-26T10:31:41.683Z,21.15
2017-07-26T10:32:42.931Z,20.68
2017-07-26T10:33:44.182Z,20.51
2017-07-26T10:34:45.449Z,19.23
2017-07-26T10:35:46.718Z,17.86
2017-07-26T10:36:47.961Z,18.66
2017-07-26T10:37:49.213Z,17.56
2017-07-26T10:38:50.457Z,18.52
2017-07-26T10:39:51.748Z,20.07
2017-07-26T10:40:53.141Z,20.62
2017-07-26T10:41:54.470Z,22.17
2017-07-26T10:42:55.721Z,23.02
2017-07-26T10:43:56.987Z,24.16
2017-07-26T10:44:58.235Z,24.92
2017-07-26T10:45:59.488Z,26.07
2017-07-26T10:47:00.857Z,26.76
2017-07-26T10:48:02.108Z,27.06
2017-07-26T10:49:03.375Z,27.23
2017-07-26T10:50:04.630Z,28.58
2017-07-26T10:51:05.873Z,29.45
2017-07-26T10:52:07.140Z,30.49
2017-07-26T10:53:08.379Z,31.26
2017-07-26T10:54:09.718Z,32.11
2017-07-26T10:55:10.964Z,32.6
2017-07-26T10:56:12.207Z,33.56
2017-07-26T10:57:13.462Z,33.36
2017-07-26T10:58:14.707Z,35.22
2017-07-26T10:59:15.953Z,35.12
2017-07-26T11:00:17.227Z,33.85
2017-07-26T11:01:18.595Z,33.15
2017-07-26T11:02:19.837Z,33.83
2017-07-26T11:03:21.085Z,33.93
2017-07-26T11:04:22.325Z,34.69
2017-07-26T11:05:23.599Z,33.8
2017-07-26T11:06:24.830Z,34.39
2017-07-26T11:07:26.116Z,35.46
2017-07-26T11:08:27.351Z,35.55
2017-07-26T11:09:28.606Z,35.46
2017-07-26T11:10:29.859Z,37.7
2017-07-26T11:11:31.173Z,37.79
2017-07-26T11:12:32.407Z,36.24
2017-07-26T11:13:33.662Z,34.88
2017-07-26T11:14:34.905Z,34.68
2017-07-26T11:15:36.174Z,34.95
2017-07-26T11:16:37.447Z,35.73
2017-07-26T11:17:38.673Z,35.63
2017-07-26T11:18:40.161Z,36.1
2017-07-26T11:19:41.460Z,38.54
2017-07-26T11:20:42.710Z,37.76
2017-07-26T11:21:43.957Z,38.15
2017-07-26T11:22:45.260Z,38.13
2017-07-26T11:23:46.483Z,38.03
2017-07-26T11:24:47.725Z,38.91
2017-07-26T11:25:49.026Z,39.37
2017-07-26T11:26:50.262Z,41.03
2017-07-26T11:27:51.521Z,40.42
2017-07-26T11:28:52.751Z,40.33
2017-07-26T11:29:54.068Z,39.14
2017-07-26T11:30:55.316Z,39.43
2017-07-26T11:31:56.564Z,39.9
2017-07-26T11:32:57.798Z,40.29
2017-07-26T11:33:59.054Z,40.39
2017-07-26T11:35:00.285Z,40.87
2017-07-26T11:36:01.549Z,42.23
2017-07-26T11:37:02.871Z,42.43
2017-07-26T11:38:04.106Z,42.71
2017-07-26T11:39:05.396Z,42.23
2017-07-26T11:40:06.642Z,41.24
2017-07-26T11:41:07.890Z,42.4
2017-07-26T11:42:09.203Z,43.37
2017-07-26T11:43:10.678Z,43.08
2017-07-26T11:44:11.821Z,42.6
2017-07-26T11:45:13.134Z,41.05
2017-07-26T11:46:14.385Z,40.85
2017-07-26T11:47:15.638Z,40.95
2017-07-26T11:48:16.881Z,42.21
2017-07-26T11:49:18.136Z,42.6
2017-07-26T11:50:19.384Z,42.48
2017-07-26T11:51:20.706Z,40.34
2017-07-26T11:52:21.949Z,41.31
2017-07-26T11:53:23.207Z,41.89
2017-07-26T11:54:24.446Z,43.64
2017-07-26T11:55:25.713Z,43.93
2017-07-26T11:56:26.991Z,43.54
2017-07-26T11:57:28.234Z,42.48
2017-07-26T11:58:29.487Z,43.84
2017-07-26T11:59:30.738Z,45.2
2017-07-26T12:00:31.986Z,46.36
2017-07-26T12:01:33.234Z,45.78
2017-07-26T12:02:34.550Z,45.48
2017-07-26T12:03:35.800Z,46.07
2017-07-26T12:04:37.046Z,45.58
2017-07-26T12:05:38.271Z,44.13
2017-07-26T12:06:39.518Z,42.26
2017-07-26T12:07:40.765Z,43.43
2017-07-26T12:08:42.052Z,43.91
2017-07-26T12:09:43.297Z,43.62
2017-07-26T12:10:44.547Z,42.75
2017-07-26T12:11:45.783Z,43.62
2017-07-26T12:12:47.024Z,43.52
2017-07-26T12:13:48.278Z,43.82
2017-07-26T12:14:49.514Z,43.91
2017-07-26T12:15:50.827Z,45.65
2017-07-26T12:16:52.095Z,46.33
2017-07-26T12:17:53.329Z,45.27
2017-07-26T12:18:54.576Z,45.17
2017-07-26T12:19:55.821Z,45.37
2017-07-26T12:20:57.148Z,45.95
2017-07-26T12:21:58.383Z,46.14
2017-07-26T12:22:59.631Z,46.53
2017-07-26T12:24:00.887Z,45.37
2017-07-26T12:25:02.134Z,45.95
2017-07-26T12:26:03.720Z,45.65
2017-07-26T12:27:04.923Z,43.84
2017-07-26T12:28:06.157Z,44.51
2017-07-26T12:29:07.398Z,45
2017-07-26T12:30:08.637Z,43.54
2017-07-26T12:31:09.882Z,44.2
2017-07-26T12:32:11.135Z,43.52
2017-07-26T12:33:12.372Z,44.78
2017-07-26T12:34:13.703Z,44.68
2017-07-26T12:35:15.020Z,43.82
2017-07-26T12:36:16.263Z,43.82
2017-07-26T12:37:17.555Z,44.3
2017-07-26T12:38:18.791Z,44.1
2017-07-26T12:39:20.149Z,45.56
2017-07-26T12:40:21.475Z,45.37
2017-07-26T12:41:22.716Z,44.3
2017-07-26T12:42:23.963Z,45.56
2017-07-26T12:43:25.218Z,43.91
2017-07-26T12:44:26.465Z,43.82
2017-07-26T12:45:27.705Z,44.4
2017-07-26T12:46:29.074Z,45.37
2017-07-26T12:47:30.319Z,44.59
2017-07-26T12:48:31.572Z,45.27
2017-07-26T12:49:32.823Z,45.34
2017-07-26T12:50:34.068Z,45.44
2017-07-26T12:51:35.365Z,45.73
2017-07-26T12:52:36.622Z,46.33
2017-07-26T12:53:37.889Z,46.41
2017-07-26T12:54:39.107Z,45.73
2017-07-26T12:55:40.352Z,46.22
2017-07-26T12:56:41.596Z,47.5
2017-07-26T12:57:42.901Z,47.6
2017-07-26T12:58:44.122Z,47.2
2017-07-26T12:59:45.470Z,45.75
2017-07-26T13:00:46.726Z,45.56
2017-07-26T13:01:47.959Z,45.27
2017-07-26T13:02:49.302Z,46.6
2017-07-26T13:03:50.773Z,46.6
2017-07-26T13:04:51.902Z,46.6
2017-07-26T13:05:53.147Z,46.89
2017-07-26T13:06:54.504Z,46.89
2017-07-26T13:07:55.750Z,46.7
2017-07-26T13:08:57.124Z,45.73
2017-07-26T13:09:58.359Z,45.54
2017-07-26T13:10:59.601Z,46.6